sensor_id;sensor_type;location;lat;lon;timestamp;P1;durP1;ratioP1;P2;durP2;ratioP2
12762;SDS011;6445;52.490;13.378;2023-11-21T00:01:53;11.70;;;8.23;;
12762;SDS011;6445;52.490;13.378;2023-11-21T00:04:19;12.85;;;8.45;;
12762;SDS011;6445;52.490;13.378;2023-11-21T00:06:44;14.85;;;9.77;;
12762;SDS011;6445;52.490;13.378;2023-11-21T00:09:12;13.77;;;9.43;;
12762;SDS011;6445;52.490;13.378;2023-11-21T00:11:37;17.90;;;12.02;;
12762;SDS011;6445;52.490;13.378;2023-11-21T00:14:03;17.05;;;11.70;;
12762;SDS011;6445;52.490;13.378;2023-11-21T00:16:28;20.98;;;12.25;;
12762;SDS011;6445;52.490;13.378;2023-11-21T00:18:54;19.90;;;12.88;;
12762;SDS011;6445;52.490;13.378;2023-11-21T00:21:19;22.25;;;13.25;;
12762;SDS011;6445;52.490;13.378;2023-11-21T00:23:45;24.05;;;14.50;;
12762;SDS011;6445;52.490;13.378;2023-11-21T00:26:10;24.25;;;13.85;;
12762;SDS011;6445;52.490;13.378;2023-11-21T00:28:35;25.38;;;14.95;;
12762;SDS011;6445;52.490;13.378;2023-11-21T00:31:01;26.05;;;14.98;;
12762;SDS011;6445;52.490;13.378;2023-11-21T00:33:26;26.10;;;15.63;;
12762;SDS011;6445;52.490;13.378;2023-11-21T00:35:52;29.73;;;16.55;;
12762;SDS011;6445;52.490;13.378;2023-11-21T00:38:17;31.02;;;17.80;;
12762;SDS011;6445;52.490;13.378;2023-11-21T00:40:45;29.23;;;17.27;;
12762;SDS011;6445;52.490;13.378;2023-11-21T00:43:10;31.30;;;17.60;;
12762;SDS011;6445;52.490;13.378;2023-11-21T00:45:35;30.63;;;17.27;;
12762;SDS011;6445;52.490;13.378;2023-11-21T00:48:01;34.40;;;19.63;;
12762;SDS011;6445;52.490;13.378;2023-11-21T00:50:27;35.95;;;19.10;;
12762;SDS011;6445;52.490;13.378;2023-11-21T00:52:52;39.67;;;20.83;;
12762;SDS011;6445;52.490;13.378;2023-11-21T00:55:17;41.15;;;21.35;;
12762;SDS011;6445;52.490;13.378;2023-11-21T00:57:43;40.15;;;21.15;;
12762;SDS011;6445;52.490;13.378;2023-11-21T01:00:08;43.47;;;20.88;;
12762;SDS011;6445;52.490;13.378;2023-11-21T01:02:42;43.80;;;20.65;;
12762;SDS011;6445;52.490;13.378;2023-11-21T01:05:09;45.35;;;21.77;;
12762;SDS011;6445;52.490;13.378;2023-11-21T01:07:34;43.47;;;20.30;;
12762;SDS011;6445;52.490;13.378;2023-11-21T01:10:01;44.47;;;21.63;;
12762;SDS011;6445;52.490;13.378;2023-11-21T01:12:27;47.58;;;21.23;;
12762;SDS011;6445;52.490;13.378;2023-11-21T01:14:52;55.35;;;21.83;;
12762;SDS011;6445;52.490;13.378;2023-11-21T01:17:17;44.30;;;21.00;;
12762;SDS011;6445;52.490;13.378;2023-11-21T01:19:43;53.72;;;22.80;;
12762;SDS011;6445;52.490;13.378;2023-11-21T01:22:08;48.85;;;23.48;;
12762;SDS011;6445;52.490;13.378;2023-11-21T01:24:34;54.65;;;23.35;;
12762;SDS011;6445;52.490;13.378;2023-11-21T01:26:59;54.13;;;24.38;;
12762;SDS011;6445;52.490;13.378;2023-11-21T01:29:24;61.65;;;25.60;;
12762;SDS011;6445;52.490;13.378;2023-11-21T01:31:49;64.93;;;26.75;;
12762;SDS011;6445;52.490;13.378;2023-11-21T01:34:15;70.03;;;28.15;;
12762;SDS011;6445;52.490;13.378;2023-11-21T01:36:40;70.80;;;29.00;;
12762;SDS011;6445;52.490;13.378;2023-11-21T01:39:05;73.47;;;29.23;;
12762;SDS011;6445;52.490;13.378;2023-11-21T01:41:33;70.00;;;28.45;;
12762;SDS011;6445;52.490;13.378;2023-11-21T01:44:00;71.38;;;28.00;;
12762;SDS011;6445;52.490;13.378;2023-11-21T01:46:25;68.55;;;27.60;;
12762;SDS011;6445;52.490;13.378;2023-11-21T01:48:51;71.70;;;27.17;;
12762;SDS011;6445;52.490;13.378;2023-11-21T01:51:18;71.78;;;28.75;;
12762;SDS011;6445;52.490;13.378;2023-11-21T01:53:43;74.80;;;27.98;;
12762;SDS011;6445;52.490;13.378;2023-11-21T01:56:10;72.32;;;28.55;;
12762;SDS011;6445;52.490;13.378;2023-11-21T01:58:35;67.03;;;26.05;;
12762;SDS011;6445;52.490;13.378;2023-11-21T02:01:00;65.38;;;25.55;;
12762;SDS011;6445;52.490;13.378;2023-11-21T02:03:26;64.93;;;25.20;;
12762;SDS011;6445;52.490;13.378;2023-11-21T02:05:52;61.22;;;22.13;;
12762;SDS011;6445;52.490;13.378;2023-11-21T02:08:18;55.05;;;21.85;;
12762;SDS011;6445;52.490;13.378;2023-11-21T02:10:44;52.83;;;21.40;;
12762;SDS011;6445;52.490;13.378;2023-11-21T02:13:10;43.38;;;19.15;;
12762;SDS011;6445;52.490;13.378;2023-11-21T02:15:35;42.72;;;18.20;;
12762;SDS011;6445;52.490;13.378;2023-11-21T02:18:03;34.25;;;15.43;;
12762;SDS011;6445;52.490;13.378;2023-11-21T02:20:28;34.53;;;15.85;;
12762;SDS011;6445;52.490;13.378;2023-11-21T02:22:55;31.20;;;14.07;;
12762;SDS011;6445;52.490;13.378;2023-11-21T02:25:23;32.25;;;14.15;;
12762;SDS011;6445;52.490;13.378;2023-11-21T02:27:49;32.70;;;14.15;;
12762;SDS011;6445;52.490;13.378;2023-11-21T02:30:14;32.80;;;13.25;;
12762;SDS011;6445;52.490;13.378;2023-11-21T02:32:41;27.40;;;13.10;;
12762;SDS011;6445;52.490;13.378;2023-11-21T02:35:07;25.17;;;12.68;;
12762;SDS011;6445;52.490;13.378;2023-11-21T02:37:33;27.15;;;12.90;;
12762;SDS011;6445;52.490;13.378;2023-11-21T02:39:59;24.75;;;12.60;;
12762;SDS011;6445;52.490;13.378;2023-11-21T02:42:24;24.00;;;12.80;;
12762;SDS011;6445;52.490;13.378;2023-11-21T02:44:49;26.45;;;13.23;;
12762;SDS011;6445;52.490;13.378;2023-11-21T02:47:15;24.38;;;12.15;;
12762;SDS011;6445;52.490;13.378;2023-11-21T02:49:40;23.05;;;11.77;;
12762;SDS011;6445;52.490;13.378;2023-11-21T02:52:05;19.75;;;10.40;;
12762;SDS011;6445;52.490;13.378;2023-11-21T02:54:31;19.50;;;10.63;;
12762;SDS011;6445;52.490;13.378;2023-11-21T02:56:56;21.15;;;11.57;;
12762;SDS011;6445;52.490;13.378;2023-11-21T02:59:21;17.98;;;10.50;;
12762;SDS011;6445;52.490;13.378;2023-11-21T03:01:46;19.33;;;10.68;;
12762;SDS011;6445;52.490;13.378;2023-11-21T03:04:12;19.88;;;11.48;;
12762;SDS011;6445;52.490;13.378;2023-11-21T03:06:42;20.00;;;11.13;;
12762;SDS011;6445;52.490;13.378;2023-11-21T03:09:08;19.42;;;11.20;;
12762;SDS011;6445;52.490;13.378;2023-11-21T03:11:33;22.15;;;12.15;;
12762;SDS011;6445;52.490;13.378;2023-11-21T03:13:58;19.52;;;11.95;;
12762;SDS011;6445;52.490;13.378;2023-11-21T03:16:23;21.48;;;12.57;;
12762;SDS011;6445;52.490;13.378;2023-11-21T03:18:49;24.70;;;13.57;;
12762;SDS011;6445;52.490;13.378;2023-11-21T03:21:14;20.48;;;14.00;;
12762;SDS011;6445;52.490;13.378;2023-11-21T03:23:39;20.05;;;13.25;;
12762;SDS011;6445;52.490;13.378;2023-11-21T03:26:04;21.15;;;13.65;;
12762;SDS011;6445;52.490;13.378;2023-11-21T03:28:33;21.83;;;13.90;;
12762;SDS011;6445;52.490;13.378;2023-11-21T03:30:58;22.40;;;13.75;;
12762;SDS011;6445;52.490;13.378;2023-11-21T03:33:24;23.48;;;14.85;;
12762;SDS011;6445;52.490;13.378;2023-11-21T03:35:49;25.08;;;13.10;;
12762;SDS011;6445;52.490;13.378;2023-11-21T03:38:15;20.75;;;12.65;;
12762;SDS011;6445;52.490;13.378;2023-11-21T03:40:41;19.48;;;12.43;;
12762;SDS011;6445;52.490;13.378;2023-11-21T03:43:06;17.60;;;12.30;;
12762;SDS011;6445;52.490;13.378;2023-11-21T03:45:32;17.15;;;11.30;;
12762;SDS011;6445;52.490;13.378;2023-11-21T03:47:57;15.32;;;10.88;;
12762;SDS011;6445;52.490;13.378;2023-11-21T03:50:22;17.40;;;11.50;;
12762;SDS011;6445;52.490;13.378;2023-11-21T03:52:47;15.10;;;10.55;;
12762;SDS011;6445;52.490;13.378;2023-11-21T03:55:13;13.85;;;10.25;;
12762;SDS011;6445;52.490;13.378;2023-11-21T03:57:38;15.38;;;10.13;;
12762;SDS011;6445;52.490;13.378;2023-11-21T04:00:03;15.95;;;10.50;;
12762;SDS011;6445;52.490;13.378;2023-11-21T04:02:33;17.02;;;12.00;;
12762;SDS011;6445;52.490;13.378;2023-11-21T04:04:58;15.32;;;11.10;;
12762;SDS011;6445;52.490;13.378;2023-11-21T04:07:24;17.35;;;11.60;;
12762;SDS011;6445;52.490;13.378;2023-11-21T04:09:49;15.75;;;11.10;;
12762;SDS011;6445;52.490;13.378;2023-11-21T04:12:14;17.58;;;11.40;;
12762;SDS011;6445;52.490;13.378;2023-11-21T04:14:40;14.98;;;11.02;;
12762;SDS011;6445;52.490;13.378;2023-11-21T04:17:05;19.52;;;11.70;;
12762;SDS011;6445;52.490;13.378;2023-11-21T04:19:31;16.13;;;11.45;;
12762;SDS011;6445;52.490;13.378;2023-11-21T04:21:56;15.68;;;11.20;;
12762;SDS011;6445;52.490;13.378;2023-11-21T04:24:21;15.13;;;10.40;;
12762;SDS011;6445;52.490;13.378;2023-11-21T04:26:47;15.23;;;9.88;;
12762;SDS011;6445;52.490;13.378;2023-11-21T04:29:12;13.85;;;9.15;;
12762;SDS011;6445;52.490;13.378;2023-11-21T04:31:37;14.00;;;9.88;;
12762;SDS011;6445;52.490;13.378;2023-11-21T04:34:02;15.13;;;10.40;;
12762;SDS011;6445;52.490;13.378;2023-11-21T04:36:29;15.35;;;9.80;;
12762;SDS011;6445;52.490;13.378;2023-11-21T04:38:56;15.35;;;10.07;;
12762;SDS011;6445;52.490;13.378;2023-11-21T04:41:21;14.55;;;9.63;;
12762;SDS011;6445;52.490;13.378;2023-11-21T04:43:46;14.77;;;10.20;;
12762;SDS011;6445;52.490;13.378;2023-11-21T04:46:12;14.88;;;9.90;;
12762;SDS011;6445;52.490;13.378;2023-11-21T04:48:37;13.55;;;9.30;;
12762;SDS011;6445;52.490;13.378;2023-11-21T04:51:03;13.43;;;8.90;;
12762;SDS011;6445;52.490;13.378;2023-11-21T04:53:29;13.15;;;9.10;;
12762;SDS011;6445;52.490;13.378;2023-11-21T04:55:54;14.15;;;9.45;;
12762;SDS011;6445;52.490;13.378;2023-11-21T04:58:19;12.45;;;9.30;;
12762;SDS011;6445;52.490;13.378;2023-11-21T05:00:45;13.57;;;9.68;;
12762;SDS011;6445;52.490;13.378;2023-11-21T05:03:11;14.10;;;9.35;;
12762;SDS011;6445;52.490;13.378;2023-11-21T05:05:37;13.77;;;9.85;;
12762;SDS011;6445;52.490;13.378;2023-11-21T05:08:02;14.75;;;9.88;;
12762;SDS011;6445;52.490;13.378;2023-11-21T05:10:28;14.90;;;9.77;;
12762;SDS011;6445;52.490;13.378;2023-11-21T05:12:54;16.42;;;9.60;;
12762;SDS011;6445;52.490;13.378;2023-11-21T05:15:20;12.18;;;8.18;;
12762;SDS011;6445;52.490;13.378;2023-11-21T05:17:46;13.88;;;9.48;;
12762;SDS011;6445;52.490;13.378;2023-11-21T05:20:12;13.60;;;9.10;;
12762;SDS011;6445;52.490;13.378;2023-11-21T05:22:39;14.13;;;9.32;;
12762;SDS011;6445;52.490;13.378;2023-11-21T05:25:05;12.90;;;8.63;;
12762;SDS011;6445;52.490;13.378;2023-11-21T05:27:32;14.57;;;8.80;;
12762;SDS011;6445;52.490;13.378;2023-11-21T05:29:58;12.50;;;8.10;;
12762;SDS011;6445;52.490;13.378;2023-11-21T05:32:24;12.57;;;8.55;;
12762;SDS011;6445;52.490;13.378;2023-11-21T05:34:49;13.68;;;8.38;;
12762;SDS011;6445;52.490;13.378;2023-11-21T05:37:15;13.60;;;9.15;;
12762;SDS011;6445;52.490;13.378;2023-11-21T05:39:40;12.93;;;8.55;;
12762;SDS011;6445;52.490;13.378;2023-11-21T05:42:05;14.27;;;9.07;;
12762;SDS011;6445;52.490;13.378;2023-11-21T05:44:31;11.98;;;8.25;;
12762;SDS011;6445;52.490;13.378;2023-11-21T05:46:56;12.70;;;8.52;;
12762;SDS011;6445;52.490;13.378;2023-11-21T05:49:23;13.65;;;9.02;;
12762;SDS011;6445;52.490;13.378;2023-11-21T05:51:51;12.43;;;8.38;;
12762;SDS011;6445;52.490;13.378;2023-11-21T05:54:18;12.93;;;8.52;;
12762;SDS011;6445;52.490;13.378;2023-11-21T05:56:44;11.32;;;8.43;;
12762;SDS011;6445;52.490;13.378;2023-11-21T05:59:09;12.73;;;8.82;;
12762;SDS011;6445;52.490;13.378;2023-11-21T06:01:35;12.32;;;9.02;;
12762;SDS011;6445;52.490;13.378;2023-11-21T06:04:03;14.25;;;9.45;;
12762;SDS011;6445;52.490;13.378;2023-11-21T06:06:29;11.82;;;8.35;;
12762;SDS011;6445;52.490;13.378;2023-11-21T06:08:56;13.20;;;8.10;;
12762;SDS011;6445;52.490;13.378;2023-11-21T06:11:21;11.10;;;7.80;;
12762;SDS011;6445;52.490;13.378;2023-11-21T06:13:46;12.10;;;7.53;;
12762;SDS011;6445;52.490;13.378;2023-11-21T06:16:12;10.93;;;7.30;;
12762;SDS011;6445;52.490;13.378;2023-11-21T06:18:41;10.57;;;7.00;;
12762;SDS011;6445;52.490;13.378;2023-11-21T06:21:08;10.68;;;7.57;;
12762;SDS011;6445;52.490;13.378;2023-11-21T06:23:34;12.55;;;7.82;;
12762;SDS011;6445;52.490;13.378;2023-11-21T06:25:59;11.23;;;7.43;;
12762;SDS011;6445;52.490;13.378;2023-11-21T06:28:25;11.00;;;6.93;;
12762;SDS011;6445;52.490;13.378;2023-11-21T06:30:50;10.38;;;6.90;;
12762;SDS011;6445;52.490;13.378;2023-11-21T06:33:15;10.35;;;6.80;;
12762;SDS011;6445;52.490;13.378;2023-11-21T06:35:41;9.00;;;6.28;;
12762;SDS011;6445;52.490;13.378;2023-11-21T06:38:06;8.88;;;6.30;;
12762;SDS011;6445;52.490;13.378;2023-11-21T06:40:31;8.45;;;5.50;;
12762;SDS011;6445;52.490;13.378;2023-11-21T06:42:58;9.55;;;5.70;;
12762;SDS011;6445;52.490;13.378;2023-11-21T06:45:24;8.70;;;5.68;;
12762;SDS011;6445;52.490;13.378;2023-11-21T06:47:49;10.23;;;5.47;;
12762;SDS011;6445;52.490;13.378;2023-11-21T06:50:14;9.88;;;6.43;;
12762;SDS011;6445;52.490;13.378;2023-11-21T06:52:39;9.48;;;6.65;;
12762;SDS011;6445;52.490;13.378;2023-11-21T06:55:05;9.32;;;6.40;;
12762;SDS011;6445;52.490;13.378;2023-11-21T06:57:33;8.95;;;6.22;;
12762;SDS011;6445;52.490;13.378;2023-11-21T06:59:58;11.07;;;6.13;;
12762;SDS011;6445;52.490;13.378;2023-11-21T07:02:23;8.00;;;5.85;;
12762;SDS011;6445;52.490;13.378;2023-11-21T07:04:48;9.20;;;6.03;;
12762;SDS011;6445;52.490;13.378;2023-11-21T07:07:14;9.13;;;5.70;;
12762;SDS011;6445;52.490;13.378;2023-11-21T07:09:39;7.88;;;5.82;;
12762;SDS011;6445;52.490;13.378;2023-11-21T07:12:04;8.38;;;5.70;;
12762;SDS011;6445;52.490;13.378;2023-11-21T07:14:32;7.22;;;5.05;;
12762;SDS011;6445;52.490;13.378;2023-11-21T07:17:00;7.72;;;5.55;;
12762;SDS011;6445;52.490;13.378;2023-11-21T07:19:26;9.77;;;5.93;;
12762;SDS011;6445;52.490;13.378;2023-11-21T07:21:51;8.20;;;5.80;;
12762;SDS011;6445;52.490;13.378;2023-11-21T07:24:16;7.63;;;5.63;;
12762;SDS011;6445;52.490;13.378;2023-11-21T07:26:42;8.32;;;5.90;;
12762;SDS011;6445;52.490;13.378;2023-11-21T07:29:07;11.65;;;6.10;;
12762;SDS011;6445;52.490;13.378;2023-11-21T07:31:33;7.55;;;5.97;;
12762;SDS011;6445;52.490;13.378;2023-11-21T07:34:00;7.90;;;5.93;;
12762;SDS011;6445;52.490;13.378;2023-11-21T07:36:26;7.03;;;5.38;;
12762;SDS011;6445;52.490;13.378;2023-11-21T07:38:51;7.72;;;5.72;;
12762;SDS011;6445;52.490;13.378;2023-11-21T07:41:17;7.47;;;5.63;;
12762;SDS011;6445;52.490;13.378;2023-11-21T07:43:43;9.13;;;5.68;;
12762;SDS011;6445;52.490;13.378;2023-11-21T07:46:09;8.85;;;5.78;;
12762;SDS011;6445;52.490;13.378;2023-11-21T07:48:34;8.20;;;6.13;;
12762;SDS011;6445;52.490;13.378;2023-11-21T07:51:00;7.28;;;5.30;;
12762;SDS011;6445;52.490;13.378;2023-11-21T07:53:28;11.40;;;5.68;;
12762;SDS011;6445;52.490;13.378;2023-11-21T07:55:55;6.53;;;5.40;;
12762;SDS011;6445;52.490;13.378;2023-11-21T07:58:27;9.55;;;6.03;;
12762;SDS011;6445;52.490;13.378;2023-11-21T08:00:52;7.97;;;5.43;;
12762;SDS011;6445;52.490;13.378;2023-11-21T08:03:17;9.57;;;5.93;;
12762;SDS011;6445;52.490;13.378;2023-11-21T08:05:43;9.10;;;5.78;;
12762;SDS011;6445;52.490;13.378;2023-11-21T08:08:08;7.50;;;4.88;;
12762;SDS011;6445;52.490;13.378;2023-11-21T08:10:33;5.90;;;5.00;;
12762;SDS011;6445;52.490;13.378;2023-11-21T08:13:00;9.50;;;5.47;;
12762;SDS011;6445;52.490;13.378;2023-11-21T08:15:25;9.35;;;5.70;;
12762;SDS011;6445;52.490;13.378;2023-11-21T08:17:51;8.63;;;5.28;;
12762;SDS011;6445;52.490;13.378;2023-11-21T08:20:16;6.38;;;5.30;;
12762;SDS011;6445;52.490;13.378;2023-11-21T08:22:43;5.60;;;4.47;;
12762;SDS011;6445;52.490;13.378;2023-11-21T08:25:09;7.10;;;4.97;;
12762;SDS011;6445;52.490;13.378;2023-11-21T08:27:34;9.63;;;5.05;;
12762;SDS011;6445;52.490;13.378;2023-11-21T08:30:05;8.15;;;5.25;;
12762;SDS011;6445;52.490;13.378;2023-11-21T08:32:32;7.10;;;5.10;;
12762;SDS011;6445;52.490;13.378;2023-11-21T08:34:58;9.07;;;5.32;;
12762;SDS011;6445;52.490;13.378;2023-11-21T08:37:26;9.27;;;5.28;;
12762;SDS011;6445;52.490;13.378;2023-11-21T08:39:55;10.52;;;5.70;;
12762;SDS011;6445;52.490;13.378;2023-11-21T08:42:24;9.50;;;5.00;;
12762;SDS011;6445;52.490;13.378;2023-11-21T08:44:49;10.02;;;5.80;;
12762;SDS011;6445;52.490;13.378;2023-11-21T08:47:14;9.93;;;5.93;;
12762;SDS011;6445;52.490;13.378;2023-11-21T08:49:40;9.30;;;5.70;;
12762;SDS011;6445;52.490;13.378;2023-11-21T08:52:05;9.88;;;6.30;;
12762;SDS011;6445;52.490;13.378;2023-11-21T08:54:31;10.48;;;6.15;;
12762;SDS011;6445;52.490;13.378;2023-11-21T08:56:56;10.88;;;6.15;;
12762;SDS011;6445;52.490;13.378;2023-11-21T08:59:23;14.38;;;6.68;;
12762;SDS011;6445;52.490;13.378;2023-11-21T09:01:49;11.10;;;6.38;;
12762;SDS011;6445;52.490;13.378;2023-11-21T09:04:14;12.00;;;6.95;;
12762;SDS011;6445;52.490;13.378;2023-11-21T09:06:39;9.95;;;5.82;;
12762;SDS011;6445;52.490;13.378;2023-11-21T09:09:05;10.35;;;6.25;;
12762;SDS011;6445;52.490;13.378;2023-11-21T09:11:31;11.27;;;6.10;;
12762;SDS011;6445;52.490;13.378;2023-11-21T09:13:58;9.60;;;5.28;;
12762;SDS011;6445;52.490;13.378;2023-11-21T09:16:24;8.55;;;5.20;;
12762;SDS011;6445;52.490;13.378;2023-11-21T09:18:49;9.30;;;5.57;;
12762;SDS011;6445;52.490;13.378;2023-11-21T09:21:14;18.63;;;11.05;;
12762;SDS011;6445;52.490;13.378;2023-11-21T09:23:39;10.18;;;6.18;;
12762;SDS011;6445;52.490;13.378;2023-11-21T09:26:05;14.60;;;5.78;;
12762;SDS011;6445;52.490;13.378;2023-11-21T09:28:30;13.65;;;6.25;;
12762;SDS011;6445;52.490;13.378;2023-11-21T09:30:55;12.50;;;6.20;;
12762;SDS011;6445;52.490;13.378;2023-11-21T09:33:21;14.07;;;6.22;;
12762;SDS011;6445;52.490;13.378;2023-11-21T09:35:47;15.05;;;6.53;;
12762;SDS011;6445;52.490;13.378;2023-11-21T09:38:14;13.07;;;5.75;;
12762;SDS011;6445;52.490;13.378;2023-11-21T09:40:39;13.00;;;6.07;;
12762;SDS011;6445;52.490;13.378;2023-11-21T09:43:06;14.70;;;6.38;;
12762;SDS011;6445;52.490;13.378;2023-11-21T09:45:36;15.27;;;6.82;;
12762;SDS011;6445;52.490;13.378;2023-11-21T09:48:03;13.80;;;6.45;;
12762;SDS011;6445;52.490;13.378;2023-11-21T09:50:30;13.70;;;7.50;;
12762;SDS011;6445;52.490;13.378;2023-11-21T09:53:02;13.32;;;6.72;;
12762;SDS011;6445;52.490;13.378;2023-11-21T09:55:31;16.38;;;7.65;;
12762;SDS011;6445;52.490;13.378;2023-11-21T09:58:01;13.45;;;7.40;;
12762;SDS011;6445;52.490;13.378;2023-11-21T10:00:28;10.27;;;6.25;;
12762;SDS011;6445;52.490;13.378;2023-11-21T10:02:57;11.50;;;5.72;;
12762;SDS011;6445;52.490;13.378;2023-11-21T10:05:23;8.15;;;4.72;;
12762;SDS011;6445;52.490;13.378;2023-11-21T10:07:49;7.38;;;4.25;;
12762;SDS011;6445;52.490;13.378;2023-11-21T10:10:15;10.48;;;4.78;;
12762;SDS011;6445;52.490;13.378;2023-11-21T10:12:45;8.70;;;4.40;;
12762;SDS011;6445;52.490;13.378;2023-11-21T10:15:14;10.77;;;5.32;;
12762;SDS011;6445;52.490;13.378;2023-11-21T10:17:41;12.50;;;6.28;;
12762;SDS011;6445;52.490;13.378;2023-11-21T10:20:13;9.75;;;5.43;;
12762;SDS011;6445;52.490;13.378;2023-11-21T10:22:42;8.52;;;5.40;;
12762;SDS011;6445;52.490;13.378;2023-11-21T10:25:12;6.97;;;5.03;;
12762;SDS011;6445;52.490;13.378;2023-11-21T10:27:41;11.07;;;5.55;;
12762;SDS011;6445;52.490;13.378;2023-11-21T10:30:08;11.77;;;5.97;;
12762;SDS011;6445;52.490;13.378;2023-11-21T10:32:36;9.57;;;5.70;;
12762;SDS011;6445;52.490;13.378;2023-11-21T10:35:02;8.95;;;4.90;;
12762;SDS011;6445;52.490;13.378;2023-11-21T10:37:35;10.20;;;5.20;;
12762;SDS011;6445;52.490;13.378;2023-11-21T10:40:09;11.43;;;6.38;;
12762;SDS011;6445;52.490;13.378;2023-11-21T10:42:38;10.68;;;6.30;;
12762;SDS011;6445;52.490;13.378;2023-11-21T10:45:05;8.00;;;4.95;;
12762;SDS011;6445;52.490;13.378;2023-11-21T10:47:40;7.05;;;4.60;;
12762;SDS011;6445;52.490;13.378;2023-11-21T10:50:06;8.45;;;5.35;;
12762;SDS011;6445;52.490;13.378;2023-11-21T10:52:35;7.30;;;3.72;;
12762;SDS011;6445;52.490;13.378;2023-11-21T10:55:01;8.43;;;4.80;;
12762;SDS011;6445;52.490;13.378;2023-11-21T10:57:28;7.43;;;4.53;;
12762;SDS011;6445;52.490;13.378;2023-11-21T10:59:54;30.17;;;18.85;;
12762;SDS011;6445;52.490;13.378;2023-11-21T11:02:22;7.13;;;4.70;;
12762;SDS011;6445;52.490;13.378;2023-11-21T11:04:57;6.93;;;4.65;;
12762;SDS011;6445;52.490;13.378;2023-11-21T11:07:26;9.07;;;4.55;;
12762;SDS011;6445;52.490;13.378;2023-11-21T11:09:53;4.70;;;3.40;;
12762;SDS011;6445;52.490;13.378;2023-11-21T11:12:19;6.45;;;4.50;;
12762;SDS011;6445;52.490;13.378;2023-11-21T11:14:45;7.13;;;4.70;;
12762;SDS011;6445;52.490;13.378;2023-11-21T11:17:10;7.90;;;4.78;;
12762;SDS011;6445;52.490;13.378;2023-11-21T11:19:36;8.68;;;4.65;;
12762;SDS011;6445;52.490;13.378;2023-11-21T11:27:26;6.65;;;4.57;;
12762;SDS011;6445;52.490;13.378;2023-11-21T11:32:39;6.38;;;4.22;;
12762;SDS011;6445;52.490;13.378;2023-11-21T11:35:34;9.43;;;4.30;;
12762;SDS011;6445;52.490;13.378;2023-11-21T11:38:06;6.63;;;4.63;;
12762;SDS011;6445;52.490;13.378;2023-11-21T11:40:38;6.55;;;4.72;;
12762;SDS011;6445;52.490;13.378;2023-11-21T11:43:09;6.18;;;4.30;;
12762;SDS011;6445;52.490;13.378;2023-11-21T11:45:34;6.85;;;4.40;;
12762;SDS011;6445;52.490;13.378;2023-11-21T11:48:00;5.90;;;4.90;;
12762;SDS011;6445;52.490;13.378;2023-11-21T11:50:27;6.63;;;4.60;;
12762;SDS011;6445;52.490;13.378;2023-11-21T11:52:52;5.20;;;4.20;;
12762;SDS011;6445;52.490;13.378;2023-11-21T11:55:23;5.00;;;4.30;;
12762;SDS011;6445;52.490;13.378;2023-11-21T11:57:53;7.32;;;4.65;;
12762;SDS011;6445;52.490;13.378;2023-11-21T12:00:21;5.82;;;3.80;;
12762;SDS011;6445;52.490;13.378;2023-11-21T12:02:53;5.78;;;4.50;;
12762;SDS011;6445;52.490;13.378;2023-11-21T12:05:21;5.30;;;4.05;;
12762;SDS011;6445;52.490;13.378;2023-11-21T12:07:51;5.30;;;3.92;;
12762;SDS011;6445;52.490;13.378;2023-11-21T12:10:19;7.82;;;4.05;;
12762;SDS011;6445;52.490;13.378;2023-11-21T12:12:49;5.95;;;3.95;;
12762;SDS011;6445;52.490;13.378;2023-11-21T12:15:15;5.20;;;3.97;;
12762;SDS011;6445;52.490;13.378;2023-11-21T12:17:41;4.57;;;3.58;;
12762;SDS011;6445;52.490;13.378;2023-11-21T12:20:12;4.43;;;3.47;;
12762;SDS011;6445;52.490;13.378;2023-11-21T12:22:47;4.63;;;3.60;;
12762;SDS011;6445;52.490;13.378;2023-11-21T12:25:14;4.95;;;3.67;;
12762;SDS011;6445;52.490;13.378;2023-11-21T12:27:51;4.50;;;3.72;;
12762;SDS011;6445;52.490;13.378;2023-11-21T12:30:21;11.45;;;5.13;;
12762;SDS011;6445;52.490;13.378;2023-11-21T12:32:48;5.88;;;4.20;;
12762;SDS011;6445;52.490;13.378;2023-11-21T12:35:16;5.35;;;4.10;;
12762;SDS011;6445;52.490;13.378;2023-11-21T12:37:48;5.32;;;3.78;;
12762;SDS011;6445;52.490;13.378;2023-11-21T12:40:14;7.80;;;4.40;;
12762;SDS011;6445;52.490;13.378;2023-11-21T12:42:41;5.82;;;4.40;;
12762;SDS011;6445;52.490;13.378;2023-11-21T12:45:08;6.20;;;4.55;;
12762;SDS011;6445;52.490;13.378;2023-11-21T12:47:35;5.15;;;4.05;;
12762;SDS011;6445;52.490;13.378;2023-11-21T12:50:01;4.38;;;3.45;;
12762;SDS011;6445;52.490;13.378;2023-11-21T12:52:28;4.72;;;3.65;;
12762;SDS011;6445;52.490;13.378;2023-11-21T12:54:53;6.85;;;5.05;;
12762;SDS011;6445;52.490;13.378;2023-11-21T12:57:19;4.85;;;3.58;;
12762;SDS011;6445;52.490;13.378;2023-11-21T12:59:45;4.63;;;3.83;;
12762;SDS011;6445;52.490;13.378;2023-11-21T13:02:12;5.53;;;3.70;;
12762;SDS011;6445;52.490;13.378;2023-11-21T13:04:39;49.38;;;22.15;;
12762;SDS011;6445;52.490;13.378;2023-11-21T13:07:04;5.38;;;4.25;;
12762;SDS011;6445;52.490;13.378;2023-11-21T13:09:39;4.30;;;3.33;;
12762;SDS011;6445;52.490;13.378;2023-11-21T13:12:06;7.90;;;4.32;;
12762;SDS011;6445;52.490;13.378;2023-11-21T13:14:33;5.93;;;4.30;;
12762;SDS011;6445;52.490;13.378;2023-11-21T13:16:59;6.82;;;4.75;;
12762;SDS011;6445;52.490;13.378;2023-11-21T13:19:24;9.55;;;4.93;;
12762;SDS011;6445;52.490;13.378;2023-11-21T13:21:49;7.88;;;4.45;;
12762;SDS011;6445;52.490;13.378;2023-11-21T13:24:15;7.35;;;4.85;;
12762;SDS011;6445;52.490;13.378;2023-11-21T13:26:41;7.60;;;5.05;;
12762;SDS011;6445;52.490;13.378;2023-11-21T13:29:07;6.03;;;4.82;;
12762;SDS011;6445;52.490;13.378;2023-11-21T13:31:33;6.03;;;4.55;;
12762;SDS011;6445;52.490;13.378;2023-11-21T13:34:01;6.97;;;4.63;;
12762;SDS011;6445;52.490;13.378;2023-11-21T13:36:30;8.60;;;5.15;;
12762;SDS011;6445;52.490;13.378;2023-11-21T13:38:57;11.68;;;5.63;;
12762;SDS011;6445;52.490;13.378;2023-11-21T13:41:23;10.00;;;6.22;;
12762;SDS011;6445;52.490;13.378;2023-11-21T13:43:55;8.80;;;6.03;;
12762;SDS011;6445;52.490;13.378;2023-11-21T13:46:28;9.00;;;6.05;;
12762;SDS011;6445;52.490;13.378;2023-11-21T13:48:59;9.98;;;6.05;;
12762;SDS011;6445;52.490;13.378;2023-11-21T13:51:24;9.57;;;6.57;;
12762;SDS011;6445;52.490;13.378;2023-11-21T13:54:02;8.02;;;6.10;;
12762;SDS011;6445;52.490;13.378;2023-11-21T13:56:30;10.18;;;6.70;;
12762;SDS011;6445;52.490;13.378;2023-11-21T13:58:56;9.27;;;6.15;;
12762;SDS011;6445;52.490;13.378;2023-11-21T14:01:24;9.25;;;6.35;;
12762;SDS011;6445;52.490;13.378;2023-11-21T14:03:54;9.27;;;6.82;;
12762;SDS011;6445;52.490;13.378;2023-11-21T14:06:26;10.10;;;6.70;;
12762;SDS011;6445;52.490;13.378;2023-11-21T14:08:59;10.30;;;7.20;;
12762;SDS011;6445;52.490;13.378;2023-11-21T14:11:26;9.88;;;7.28;;
12762;SDS011;6445;52.490;13.378;2023-11-21T14:13:52;10.77;;;7.20;;
12762;SDS011;6445;52.490;13.378;2023-11-21T14:16:17;9.45;;;7.03;;
12762;SDS011;6445;52.490;13.378;2023-11-21T14:18:43;10.20;;;7.15;;
12762;SDS011;6445;52.490;13.378;2023-11-21T14:21:20;13.23;;;7.80;;
12762;SDS011;6445;52.490;13.378;2023-11-21T14:23:46;12.57;;;8.70;;
12762;SDS011;6445;52.490;13.378;2023-11-21T14:26:13;12.95;;;8.93;;
12762;SDS011;6445;52.490;13.378;2023-11-21T14:28:40;15.13;;;10.52;;
12762;SDS011;6445;52.490;13.378;2023-11-21T14:31:05;14.77;;;10.85;;
12762;SDS011;6445;52.490;13.378;2023-11-21T14:33:30;19.77;;;13.95;;
12762;SDS011;6445;52.490;13.378;2023-11-21T14:35:55;20.88;;;15.10;;
12762;SDS011;6445;52.490;13.378;2023-11-21T14:38:22;20.63;;;13.57;;
12762;SDS011;6445;52.490;13.378;2023-11-21T14:40:47;20.50;;;14.02;;